Time;durP1;ratioP1;P1;durP2;ratioP2;P2;SDS_P1;SDS_P2;PMS_P1;PMS_P2;Temp;Humidity;BMP_temperature;BMP_pressure;BME280_temperature;BME280_humidity;BME280_pressure;Samples;Min_cycle;Max_cycle;Signal;HPM_P1;HPM_P2
2021/08/31 00:01:00;;;;;;;0.53;0.37;;;22.10;56.50;;;;;;4946102;29;20434;-67
2021/08/31 00:03:26;;;;;;;0.70;0.45;;;22.10;56.50;;;;;;4945873;29;20557;-68
2021/08/31 00:05:51;;;;;;;0.60;0.40;;;22.20;56.60;;;;;;4946146;29;20406;-69
2021/08/31 00:08:17;;;;;;;0.90;0.40;;;22.00;56.50;;;;;;4945614;29;20402;-68
2021/08/31 00:10:43;;;;;;;0.80;0.50;;;22.00;56.50;;;;;;4946019;29;20878;-69
2021/08/31 00:13:08;;;;;;;1.83;0.60;;;22.00;56.50;;;;;;4945898;29;20406;-68
2021/08/31 00:15:35;;;;;;;0.70;0.30;;;22.00;56.60;;;;;;4945697;29;20822;-67
2021/08/31 00:18:01;;;;;;;0.50;0.30;;;22.00;56.50;;;;;;4945846;29;20401;-69
2021/08/31 00:20:29;;;;;;;0.85;0.50;;;22.00;56.50;;;;;;4945135;29;20397;-69
2021/08/31 00:22:55;;;;;;;0.80;0.40;;;22.00;56.50;;;;;;4945834;29;20421;-68
2021/08/31 00:25:21;;;;;;;0.90;0.40;;;22.00;56.50;;;;;;4945616;29;20446;-68
2021/08/31 00:27:46;;;;;;;0.80;0.40;;;22.00;56.50;;;;;;4945605;29;20457;-68
2021/08/31 00:30:12;;;;;;;1.02;0.50;;;22.00;56.50;;;;;;4944995;29;20460;-68
2021/08/31 00:32:38;;;;;;;0.60;0.40;;;22.00;56.50;;;;;;4945600;29;20413;-68
2021/08/31 00:35:04;;;;;;;0.60;0.30;;;22.00;56.50;;;;;;4945445;28;20533;-67
2021/08/31 00:37:30;;;;;;;0.70;0.45;;;22.00;56.50;;;;;;4945177;28;20504;-68
2021/08/31 00:39:55;;;;;;;0.90;0.47;;;22.00;56.50;;;;;;4946219;28;20465;-69
2021/08/31 00:42:21;;;;;;;1.67;0.47;;;22.00;56.60;;;;;;4945781;28;20417;-68
2021/08/31 00:44:50;;;;;;;0.88;0.40;;;22.00;56.80;;;;;;4947139;28;20398;-69
2021/08/31 00:47:15;;;;;;;1.48;0.50;;;22.00;57.10;;;;;;4955130;28;20429;-69
2021/08/31 00:49:41;;;;;;;1.10;0.40;;;22.00;57.40;;;;;;4945128;28;20397;-67
2021/08/31 00:52:07;;;;;;;1.60;0.40;;;22.10;57.40;;;;;;4945180;28;20409;-69
2021/08/31 00:54:34;;;;;;;1.00;0.40;;;22.00;57.70;;;;;;4944644;28;20394;-70
2021/08/31 00:57:01;;;;;;;0.70;0.40;;;22.00;57.70;;;;;;4944922;28;20401;-67
2021/08/31 00:59:27;;;;;;;0.77;0.40;;;22.10;57.90;;;;;;4945277;28;20401;-69
2021/08/31 01:01:53;;;;;;;1.80;0.40;;;22.10;58.00;;;;;;4944756;28;20402;-67
2021/08/31 01:04:30;;;;;;;0.60;0.30;;;22.10;58.10;;;;;;4944480;28;20398;-68
2021/08/31 01:06:57;;;;;;;0.80;0.40;;;22.10;58.30;;;;;;4945131;28;20794;-70
2021/08/31 01:09:23;;;;;;;1.57;0.50;;;22.10;58.30;;;;;;4959247;28;20715;-67
2021/08/31 01:11:54;;;;;;;0.75;0.40;;;22.10;58.30;;;;;;4944650;28;20396;-67
2021/08/31 01:14:24;;;;;;;0.60;0.30;;;22.10;58.00;;;;;;4943565;28;20394;-66
2021/08/31 01:16:50;;;;;;;0.80;0.40;;;22.10;57.80;;;;;;4928469;28;20448;-66
2021/08/31 01:19:24;;;;;;;0.55;0.30;;;22.00;57.80;;;;;;4943404;28;20414;-67
2021/08/31 01:21:50;;;;;;;0.95;0.30;;;22.00;57.80;;;;;;4944777;28;20874;-66
2021/08/31 01:24:15;;;;;;;0.80;0.40;;;22.00;57.70;;;;;;4943907;28;20401;-67
2021/08/31 01:26:42;;;;;;;0.70;0.40;;;22.00;57.70;;;;;;4943902;28;20410;-69
2021/08/31 01:29:08;;;;;;;1.00;0.40;;;22.00;57.70;;;;;;4944485;28;20397;-69
2021/08/31 01:31:34;;;;;;;1.30;0.40;;;22.00;57.80;;;;;;4943651;28;20388;-68
2021/08/31 01:34:00;;;;;;;0.60;0.30;;;22.00;57.60;;;;;;4944547;28;20578;-74
2021/08/31 01:36:26;;;;;;;1.05;0.45;;;22.00;57.60;;;;;;4944649;28;20512;-66
2021/08/31 01:38:55;;;;;;;1.58;0.30;;;22.00;57.60;;;;;;4945398;28;20422;-67
2021/08/31 01:41:21;;;;;;;0.98;0.50;;;22.00;57.60;;;;;;4944550;28;20393;-71
2021/08/31 01:43:47;;;;;;;0.52;0.30;;;22.00;57.60;;;;;;4945955;28;20416;-68
2021/08/31 01:46:13;;;;;;;1.08;0.40;;;22.00;57.60;;;;;;4944384;28;20418;-68
2021/08/31 01:48:39;;;;;;;1.10;0.40;;;22.00;57.60;;;;;;4944174;29;20457;-68
2021/08/31 01:51:06;;;;;;;0.75;0.30;;;22.00;57.50;;;;;;4944530;29;20401;-68
2021/08/31 01:53:33;;;;;;;0.80;0.30;;;22.00;57.50;;;;;;4944451;29;20412;-69
2021/08/31 01:55:59;;;;;;;0.90;0.40;;;22.00;57.50;;;;;;4944351;29;20386;-68
2021/08/31 01:58:25;;;;;;;1.00;0.40;;;22.00;57.30;;;;;;4942850;28;20511;-69
2021/08/31 02:00:51;;;;;;;0.63;0.30;;;22.00;57.40;;;;;;4944130;28;20398;-68
2021/08/31 02:03:16;;;;;;;0.90;0.40;;;21.90;57.20;;;;;;4944072;28;20771;-68
2021/08/31 02:05:42;;;;;;;0.60;0.40;;;21.90;57.50;;;;;;4943993;28;21092;-70
2021/08/31 02:08:08;;;;;;;0.70;0.40;;;22.00;57.30;;;;;;4941033;28;20456;-67
2021/08/31 02:10:33;;;;;;;0.70;0.40;;;22.00;57.80;;;;;;4943536;28;20480;-69
2021/08/31 02:12:59;;;;;;;0.63;0.32;;;21.90;57.50;;;;;;4944088;29;20397;-68
2021/08/31 02:15:25;;;;;;;1.00;0.40;;;21.90;57.40;;;;;;4944143;29;20751;-68
2021/08/31 02:17:50;;;;;;;1.05;0.45;;;21.90;57.50;;;;;;4946732;28;20816;-69
2021/08/31 02:20:16;;;;;;;0.83;0.40;;;22.00;57.60;;;;;;4946985;28;20480;-67
2021/08/31 02:22:42;;;;;;;1.02;0.40;;;21.90;57.50;;;;;;4947559;29;20408;-68
2021/08/31 02:25:09;;;;;;;2.20;0.50;;;21.90;57.70;;;;;;4947495;29;20398;-68
2021/08/31 02:27:35;;;;;;;0.73;0.40;;;21.90;57.60;;;;;;4947842;29;20426;-68
2021/08/31 02:30:01;;;;;;;0.65;0.30;;;21.90;57.70;;;;;;4947857;29;20405;-68
2021/08/31 02:32:27;;;;;;;1.05;0.40;;;21.90;57.60;;;;;;4947381;29;20402;-69
2021/08/31 02:34:52;;;;;;;1.20;0.40;;;21.90;57.70;;;;;;4947603;29;20398;-68
2021/08/31 02:37:18;;;;;;;1.02;0.40;;;21.90;57.60;;;;;;4947796;29;20432;-67
2021/08/31 02:39:44;;;;;;;1.30;0.40;;;21.90;57.60;;;;;;4947578;29;20390;-69
2021/08/31 02:42:09;;;;;;;0.75;0.40;;;21.90;57.70;;;;;;4937244;29;20401;-68
2021/08/31 02:44:35;;;;;;;0.90;0.40;;;21.90;57.80;;;;;;4947113;29;20408;-68
2021/08/31 02:47:01;;;;;;;1.30;0.40;;;21.90;57.80;;;;;;4947436;29;20434;-68
2021/08/31 02:49:26;;;;;;;1.38;0.30;;;21.90;57.80;;;;;;4947506;29;20412;-69
2021/08/31 02:51:52;;;;;;;1.30;0.53;;;21.90;57.70;;;;;;4947480;29;20445;-67
2021/08/31 02:54:18;;;;;;;1.05;0.40;;;21.90;57.90;;;;;;4945675;28;20481;-68
2021/08/31 02:56:44;;;;;;;1.08;0.40;;;21.90;57.80;;;;;;4947344;29;20457;-69
2021/08/31 02:59:09;;;;;;;1.30;0.40;;;21.90;57.80;;;;;;4947438;29;20416;-67
2021/08/31 03:01:39;;;;;;;0.90;0.50;;;21.90;57.80;;;;;;4947273;29;20401;-69
2021/08/31 03:04:05;;;;;;;1.40;0.40;;;21.90;57.90;;;;;;4947170;29;20476;-69
2021/08/31 03:06:32;;;;;;;1.17;0.50;;;21.90;58.10;;;;;;4946736;29;20417;-67
2021/08/31 03:08:58;;;;;;;1.92;0.50;;;22.00;58.80;;;;;;4947214;29;20806;-69
2021/08/31 03:11:24;;;;;;;1.52;0.50;;;21.90;58.60;;;;;;4947099;29;20779;-67
2021/08/31 03:13:51;;;;;;;0.77;0.43;;;22.00;59.70;;;;;;4947130;28;20410;-69
2021/08/31 03:16:17;;;;;;;2.00;0.47;;;22.00;58.60;;;;;;4947706;29;20861;-68
2021/08/31 03:18:43;;;;;;;0.93;0.50;;;22.00;58.60;;;;;;4939802;28;20445;-67
2021/08/31 03:21:08;;;;;;;3.28;0.50;;;22.00;59.70;;;;;;4930542;28;20410;-68
2021/08/31 03:23:34;;;;;;;0.90;0.40;;;22.10;60.50;;;;;;4927370;29;20435;-67
2021/08/31 03:26:00;;;;;;;2.85;0.60;;;22.20;60.30;;;;;;4927698;29;20471;-69
2021/08/31 03:28:26;;;;;;;2.00;0.43;;;22.20;60.50;;;;;;4926019;29;20414;-68
2021/08/31 03:30:51;;;;;;;1.90;0.40;;;22.30;60.50;;;;;;4927801;29;20911;-70
2021/08/31 03:33:17;;;;;;;1.63;0.60;;;22.30;60.70;;;;;;4927496;29;20989;-69
2021/08/31 03:35:43;;;;;;;1.97;0.50;;;22.30;61.10;;;;;;4927886;29;20911;-69
2021/08/31 03:38:08;;;;;;;2.67;0.70;;;22.30;61.40;;;;;;4927457;29;20411;-69
2021/08/31 03:40:34;;;;;;;1.13;0.60;;;22.40;61.40;;;;;;4927276;29;20399;-68
2021/08/31 03:43:00;;;;;;;1.67;0.32;;;22.40;61.40;;;;;;4928313;29;20486;-68
2021/08/31 03:45:26;;;;;;;1.80;0.70;;;22.40;61.00;;;;;;4927455;29;20531;-68
2021/08/31 03:47:51;;;;;;;2.40;0.60;;;22.40;61.70;;;;;;4927234;29;20781;-68
2021/08/31 03:50:17;;;;;;;2.67;0.50;;;22.40;61.30;;;;;;4927108;29;20528;-67
2021/08/31 03:52:43;;;;;;;1.88;0.50;;;22.40;61.50;;;;;;4926709;29;20407;-68
2021/08/31 03:55:09;;;;;;;2.20;0.40;;;22.40;61.10;;;;;;4926996;29;20408;-68
2021/08/31 03:57:35;;;;;;;3.83;0.47;;;22.50;61.20;;;;;;4926789;29;20431;-69
2021/08/31 04:00:00;;;;;;;1.93;0.50;;;22.40;59.90;;;;;;4926695;29;20519;-68
2021/08/31 04:02:26;;;;;;;1.33;0.50;;;22.40;60.10;;;;;;4925613;29;20389;-67
2021/08/31 04:04:52;;;;;;;0.82;0.40;;;22.40;60.00;;;;;;4926473;29;20789;-69
2021/08/31 04:07:17;;;;;;;0.87;0.40;;;22.30;60.00;;;;;;4926682;29;20419;-68
2021/08/31 04:09:43;;;;;;;1.13;0.40;;;22.30;59.80;;;;;;4926890;29;20398;-69
2021/08/31 04:12:09;;;;;;;2.60;0.50;;;22.30;59.60;;;;;;4927029;29;20427;-68
2021/08/31 04:14:35;;;;;;;1.97;0.60;;;22.30;59.30;;;;;;4926212;29;20487;-68
2021/08/31 04:17:00;;;;;;;8.77;0.60;;;22.20;58.90;;;;;;4926660;29;20419;-69
2021/08/31 04:19:26;;;;;;;4.90;0.80;;;22.20;59.10;;;;;;4926708;29;20900;-68
2021/08/31 04:21:52;;;;;;;3.72;0.82;;;22.20;58.90;;;;;;4926861;29;20816;-68
2021/08/31 04:24:17;;;;;;;5.70;0.77;;;22.20;59.00;;;;;;4926894;29;20395;-67
2021/08/31 04:26:43;;;;;;;3.30;0.70;;;22.20;58.90;;;;;;4926108;29;21285;-67
2021/08/31 04:29:09;;;;;;;4.07;0.90;;;22.20;58.90;;;;;;4926843;29;20502;-69
2021/08/31 04:31:34;;;;;;;3.88;0.57;;;22.10;59.00;;;;;;4926203;29;20754;-69
2021/08/31 04:34:00;;;;;;;5.37;0.90;;;22.10;59.10;;;;;;4914413;29;20427;-69
2021/08/31 04:36:25;;;;;;;3.53;0.60;;;22.10;59.10;;;;;;4925852;29;20396;-69
2021/08/31 04:38:51;;;;;;;2.00;0.50;;;22.10;59.00;;;;;;4926599;29;20807;-69
2021/08/31 04:41:17;;;;;;;1.70;0.50;;;22.10;59.00;;;;;;4926022;29;20872;-68
2021/08/31 04:43:43;;;;;;;1.85;0.60;;;22.10;58.90;;;;;;4926396;29;20400;-68
2021/08/31 04:46:11;;;;;;;3.08;0.68;;;22.10;58.80;;;;;;4926204;29;20407;-68
2021/08/31 04:48:38;;;;;;;2.90;0.60;;;22.10;58.70;;;;;;4925730;29;20414;-68
2021/08/31 04:51:04;;;;;;;3.00;0.68;;;22.10;58.60;;;;;;4926224;29;20396;-66
2021/08/31 04:53:30;;;;;;;2.07;0.50;;;22.10;58.50;;;;;;4926162;29;20453;-68
2021/08/31 04:55:55;;;;;;;2.60;0.63;;;22.10;58.50;;;;;;4926161;29;20395;-67
2021/08/31 04:58:21;;;;;;;2.05;0.55;;;22.10;58.40;;;;;;4925934;29;20411;-68
2021/08/31 05:00:47;;;;;;;1.50;0.50;;;22.00;58.40;;;;;;4924926;29;20714;-68
2021/08/31 05:03:12;;;;;;;2.80;0.50;;;22.00;58.30;;;;;;4925238;29;20824;-69
2021/08/31 05:05:38;;;;;;;1.73;0.53;;;22.10;58.30;;;;;;4925568;29;20413;-69
2021/08/31 05:08:04;;;;;;;1.08;0.32;;;22.00;58.30;;;;;;4925896;29;20423;-69
2021/08/31 05:10:30;;;;;;;1.30;0.30;;;22.00;58.30;;;;;;4925360;29;20387;-69
2021/08/31 05:12:56;;;;;;;1.27;0.40;;;22.00;58.30;;;;;;4926149;29;20411;-68
2021/08/31 05:15:21;;;;;;;2.95;0.63;;;22.00;58.30;;;;;;4925788;29;20399;-68
2021/08/31 05:17:47;;;;;;;1.80;0.50;;;22.00;58.20;;;;;;4925906;29;20431;-67
2021/08/31 05:20:13;;;;;;;1.40;0.70;;;22.00;58.20;;;;;;4925807;29;20430;-68
2021/08/31 05:22:39;;;;;;;1.88;0.50;;;22.00;58.20;;;;;;4923764;29;20404;-67
2021/08/31 05:25:05;;;;;;;1.10;0.43;;;22.00;58.20;;;;;;4925830;29;20935;-69
2021/08/31 05:27:31;;;;;;;1.30;0.60;;;22.00;58.30;;;;;;4925364;29;20458;-68
2021/08/31 05:29:57;;;;;;;1.92;0.57;;;21.90;58.20;;;;;;4925671;29;20474;-67
2021/08/31 05:32:24;;;;;;;1.40;0.68;;;22.00;58.20;;;;;;4925225;29;20400;-67
2021/08/31 05:34:49;;;;;;;1.10;0.50;;;22.00;58.20;;;;;;4925033;29;20479;-68
2021/08/31 05:37:15;;;;;;;2.30;0.50;;;22.00;58.20;;;;;;4925648;29;21023;-68
2021/08/31 05:39:41;;;;;;;1.48;0.57;;;21.90;58.10;;;;;;4925408;29;20404;-67
2021/08/31 05:42:08;;;;;;;1.77;0.60;;;21.90;58.10;;;;;;4925563;29;20421;-68
2021/08/31 05:44:36;;;;;;;1.15;0.63;;;22.00;58.20;;;;;;4924885;29;20391;-67
2021/08/31 05:47:03;;;;;;;0.95;0.40;;;22.00;58.20;;;;;;4923723;29;20438;-66
2021/08/31 05:49:30;;;;;;;2.10;0.70;;;22.00;58.10;;;;;;4925380;29;20399;-67
2021/08/31 05:51:57;;;;;;;1.60;0.50;;;22.00;58.20;;;;;;4924632;29;20394;-69
2021/08/31 05:54:25;;;;;;;1.00;0.50;;;21.90;58.20;;;;;;4925220;29;20756;-67
2021/08/31 05:56:51;;;;;;;1.00;0.50;;;21.90;58.20;;;;;;4925254;29;20395;-68
2021/08/31 05:59:17;;;;;;;1.20;0.60;;;21.90;58.10;;;;;;4925385;29;20475;-69
2021/08/31 06:01:44;;;;;;;1.40;0.60;;;21.90;58.10;;;;;;4925167;29;20404;-68
2021/08/31 06:04:11;;;;;;;1.10;0.60;;;21.90;58.00;;;;;;4925144;29;20402;-68
2021/08/31 06:06:37;;;;;;;0.90;0.57;;;21.90;58.10;;;;;;4924672;29;20457;-69
2021/08/31 06:09:04;;;;;;;1.10;0.68;;;21.90;58.00;;;;;;4925293;29;20990;-68
2021/08/31 06:11:31;;;;;;;1.20;0.52;;;21.90;58.10;;;;;;4925237;29;20412;-68
2021/08/31 06:13:57;;;;;;;1.10;0.60;;;21.90;58.10;;;;;;4925058;29;20435;-68
2021/08/31 06:16:23;;;;;;;0.85;0.60;;;21.90;58.10;;;;;;4924898;29;20530;-67
2021/08/31 06:18:48;;;;;;;1.52;0.60;;;21.90;58.20;;;;;;4924993;29;21006;-67
2021/08/31 06:21:14;;;;;;;1.13;0.50;;;21.90;58.00;;;;;;4925230;29;20426;-68
2021/08/31 06:23:39;;;;;;;1.47;0.77;;;21.90;58.10;;;;;;4925254;29;20796;-69
2021/08/31 06:26:05;;;;;;;1.13;0.70;;;21.90;58.00;;;;;;4924838;29;20866;-67
2021/08/31 06:28:32;;;;;;;1.00;0.60;;;21.90;58.00;;;;;;4924851;29;20407;-69
2021/08/31 06:30:58;;;;;;;1.13;0.70;;;21.90;58.00;;;;;;4925041;29;20392;-68
2021/08/31 06:33:23;;;;;;;1.25;0.70;;;21.90;57.90;;;;;;4925095;29;20411;-68
2021/08/31 06:35:49;;;;;;;1.60;0.70;;;21.90;58.00;;;;;;4924935;29;20402;-67
2021/08/31 06:38:15;;;;;;;1.00;0.80;;;21.90;58.00;;;;;;4925052;29;20399;-67
2021/08/31 06:40:41;;;;;;;0.83;0.70;;;21.90;57.90;;;;;;4924497;29;20407;-69
2021/08/31 06:43:07;;;;;;;1.42;0.65;;;21.90;58.00;;;;;;4924952;29;20411;-67
2021/08/31 06:45:32;;;;;;;1.10;0.80;;;21.90;58.00;;;;;;4925110;29;20450;-69
2021/08/31 06:47:58;;;;;;;0.83;0.60;;;21.90;58.00;;;;;;4923233;29;20873;-68
2021/08/31 06:50:24;;;;;;;1.02;0.70;;;21.90;57.90;;;;;;4924790;29;20427;-70
2021/08/31 06:52:49;;;;;;;1.10;0.77;;;21.90;57.90;;;;;;4924491;29;20853;-69
2021/08/31 06:55:16;;;;;;;1.02;0.70;;;21.90;57.80;;;;;;4923459;29;20396;-68
2021/08/31 06:57:42;;;;;;;1.20;0.90;;;21.90;57.90;;;;;;4924774;29;20408;-67
2021/08/31 07:00:09;;;;;;;0.80;0.70;;;21.90;58.00;;;;;;4911920;29;20396;-68
2021/08/31 07:02:35;;;;;;;1.58;0.88;;;21.80;58.00;;;;;;4925107;29;20494;-68
2021/08/31 07:05:01;;;;;;;1.20;0.80;;;21.80;58.00;;;;;;4927916;29;20398;-68
2021/08/31 07:07:26;;;;;;;1.25;0.90;;;21.80;58.00;;;;;;4942750;29;20463;-68
2021/08/31 07:09:52;;;;;;;1.20;0.80;;;21.80;57.90;;;;;;4928040;29;20876;-68
2021/08/31 07:12:18;;;;;;;1.20;0.95;;;21.90;58.00;;;;;;4916650;29;20419;-68
2021/08/31 07:14:44;;;;;;;1.00;0.70;;;21.80;58.00;;;;;;4927584;29;21093;-68
2021/08/31 07:17:10;;;;;;;1.65;0.80;;;21.80;58.00;;;;;;4927656;29;20465;-68
2021/08/31 07:19:35;;;;;;;1.40;1.00;;;21.80;58.00;;;;;;4942370;29;20396;-69
2021/08/31 07:22:01;;;;;;;1.67;1.10;;;21.90;58.10;;;;;;4927290;29;20455;-67
2021/08/31 07:24:28;;;;;;;1.30;1.10;;;21.80;58.20;;;;;;4927649;29;20435;-69
2021/08/31 07:26:54;;;;;;;1.42;1.02;;;21.80;58.10;;;;;;4927477;29;20423;-68
2021/08/31 07:29:20;;;;;;;2.23;1.10;;;21.80;58.20;;;;;;4927744;29;20392;-68
2021/08/31 07:31:46;;;;;;;1.35;1.05;;;21.80;58.10;;;;;;4927551;29;20906;-69
2021/08/31 07:34:11;;;;;;;1.30;1.00;;;21.80;58.10;;;;;;4920298;29;20418;-68
2021/08/31 07:36:37;;;;;;;1.38;1.10;;;21.80;58.20;;;;;;4927173;29;20402;-69
2021/08/31 07:39:03;;;;;;;1.10;0.90;;;21.80;58.20;;;;;;4927527;29;20435;-67
2021/08/31 07:41:28;;;;;;;1.70;1.00;;;21.80;58.20;;;;;;4927537;29;20408;-68
2021/08/31 07:43:54;;;;;;;1.73;1.00;;;21.80;58.20;;;;;;4927201;29;20412;-69
2021/08/31 07:46:21;;;;;;;1.20;0.90;;;21.80;58.20;;;;;;4926122;29;20463;-67
2021/08/31 07:48:47;;;;;;;1.30;1.00;;;21.80;58.20;;;;;;4926593;29;20498;-68
2021/08/31 07:51:13;;;;;;;1.20;0.90;;;21.80;58.20;;;;;;4927417;29;20892;-68
2021/08/31 07:53:39;;;;;;;1.80;1.00;;;21.80;58.20;;;;;;4927238;29;20406;-69
2021/08/31 07:56:05;;;;;;;1.27;1.00;;;21.80;58.20;;;;;;4925372;29;20488;-67
2021/08/31 07:58:31;;;;;;;1.50;1.05;;;21.80;58.30;;;;;;4925435;29;20407;-69
2021/08/31 08:00:57;;;;;;;1.40;1.00;;;21.80;58.20;;;;;;4926828;29;20406;-68
2021/08/31 08:03:23;;;;;;;1.17;0.93;;;21.80;58.30;;;;;;4925792;29;20420;-69
2021/08/31 08:05:48;;;;;;;1.27;1.00;;;21.80;58.30;;;;;;4926574;29;20506;-69
2021/08/31 08:08:14;;;;;;;1.25;0.90;;;21.80;58.40;;;;;;4926946;29;20438;-68
2021/08/31 08:10:39;;;;;;;1.23;1.00;;;21.80;58.30;;;;;;4941005;29;20765;-67
2021/08/31 08:13:05;;;;;;;1.80;0.90;;;21.80;58.30;;;;;;4926979;29;20406;-67
2021/08/31 08:15:31;;;;;;;1.10;0.90;;;21.80;58.30;;;;;;4925953;29;20400;-68
2021/08/31 08:17:56;;;;;;;1.10;0.90;;;21.80;58.40;;;;;;4926744;29;20458;-68
2021/08/31 08:20:22;;;;;;;1.02;0.80;;;21.80;58.40;;;;;;4925143;29;20904;-69
2021/08/31 08:22:49;;;;;;;1.20;0.90;;;21.80;58.40;;;;;;4926157;29;20483;-68
2021/08/31 08:25:15;;;;;;;1.20;0.90;;;21.80;58.30;;;;;;4925480;29;20403;-68
2021/08/31 08:27:41;;;;;;;1.70;1.30;;;21.80;58.40;;;;;;4926252;29;20442;-68
2021/08/31 08:30:08;;;;;;;1.50;1.10;;;21.80;58.40;;;;;;4924917;29;20509;-69
2021/08/31 08:32:36;;;;;;;1.20;1.00;;;21.80;58.40;;;;;;4924389;29;21613;-69
2021/08/31 08:35:02;;;;;;;1.30;1.00;;;21.80;58.30;;;;;;4926329;29;20387;-69
2021/08/31 08:37:27;;;;;;;1.33;1.00;;;21.80;58.30;;;;;;4926423;29;20417;-67
2021/08/31 08:39:53;;;;;;;1.48;1.02;;;21.80;58.50;;;;;;4926402;29;20391;-69
2021/08/31 08:42:19;;;;;;;1.40;1.10;;;21.80;58.30;;;;;;4926262;29;20410;-68
2021/08/31 08:44:45;;;;;;;1.40;1.15;;;21.80;58.40;;;;;;4914234;29;20462;-68
2021/08/31 08:47:11;;;;;;;1.75;1.20;;;21.80;58.90;;;;;;4925941;29;20467;-66
2021/08/31 08:49:37;;;;;;;1.60;1.20;;;21.80;58.20;;;;;;4926004;29;20792;-68
2021/08/31 08:52:04;;;;;;;1.40;1.00;;;21.80;58.30;;;;;;4924554;29;20424;-69
2021/08/31 08:54:30;;;;;;;1.48;1.08;;;21.80;58.30;;;;;;4940190;29;20438;-68
2021/08/31 08:56:56;;;;;;;1.93;1.40;;;21.80;58.20;;;;;;4925713;29;20411;-67
2021/08/31 08:59:22;;;;;;;1.92;1.42;;;21.80;58.30;;;;;;4925833;29;20487;-67
2021/08/31 09:01:53;;;;;;;2.22;1.40;;;21.80;58.10;;;;;;4924754;29;20426;-69
2021/08/31 09:04:40;;;;;;;2.15;1.65;;;21.80;58.20;;;;;;4924068;29;21020;-69
2021/08/31 09:07:37;;;;;;;2.33;1.60;;;21.80;58.40;;;;;;4925728;29;20415;-69
2021/08/31 09:10:23;;;;;;;2.40;1.60;;;21.80;58.20;;;;;;4908328;29;20447;-67
2021/08/31 09:12:51;;;;;;;2.60;1.80;;;21.80;58.20;;;;;;4929061;29;20442;-68
2021/08/31 09:15:19;;;;;;;2.28;1.77;;;21.80;58.20;;;;;;4925366;29;20985;-66
2021/08/31 09:18:07;;;;;;;2.47;1.63;;;21.80;58.20;;;;;;4924521;29;20615;-67
2021/08/31 09:20:37;;;;;;;2.40;2.00;;;21.70;58.30;;;;;;4924266;29;20502;-68
2021/08/31 09:23:04;;;;;;;2.95;1.95;;;21.80;58.20;;;;;;4925514;29;20427;-66
2021/08/31 09:25:41;;;;;;;2.83;2.05;;;21.80;58.30;;;;;;4926608;29;20420;-69
2021/08/31 09:28:19;;;;;;;3.10;2.20;;;21.80;58.40;;;;;;4925053;29;20435;-66
2021/08/31 09:30:45;;;;;;;2.90;2.20;;;21.80;58.40;;;;;;4924999;29;20399;-66
2021/08/31 09:33:15;;;;;;;3.35;2.10;;;21.80;58.50;;;;;;4924254;29;20408;-69
2021/08/31 09:35:42;;;;;;;2.78;2.00;;;21.80;58.50;;;;;;4925537;29;20410;-69
2021/08/31 09:38:12;;;;;;;3.05;1.90;;;21.70;58.60;;;;;;4923923;29;20414;-68
2021/08/31 09:40:40;;;;;;;2.60;1.92;;;21.70;58.50;;;;;;4925108;29;20400;-66
2021/08/31 09:43:12;;;;;;;2.70;1.88;;;21.80;58.50;;;;;;4925449;29;20483;-69
2021/08/31 09:45:40;;;;;;;2.92;1.77;;;21.80;58.50;;;;;;4915064;29;20403;-68
2021/08/31 09:48:07;;;;;;;2.88;1.95;;;21.80;58.50;;;;;;4923558;29;20427;-68
2021/08/31 09:50:35;;;;;;;2.65;1.90;;;21.80;58.70;;;;;;4925395;29;20395;-67
2021/08/31 09:53:09;;;;;;;2.40;1.77;;;21.80;58.60;;;;;;4925123;29;20403;-67
2021/08/31 09:55:37;;;;;;;2.92;1.70;;;21.80;58.60;;;;;;4939879;29;20422;-67
2021/08/31 09:58:08;;;;;;;2.00;1.55;;;21.80;58.70;;;;;;4925285;29;20499;-68
2021/08/31 10:00:33;;;;;;;2.58;1.88;;;21.80;59.20;;;;;;4925321;29;20935;-68
2021/08/31 10:03:00;;;;;;;2.40;1.60;;;21.80;58.70;;;;;;4939358;29;20395;-68
2021/08/31 10:05:27;;;;;;;2.45;1.70;;;21.80;58.70;;;;;;4925115;29;20399;-67
2021/08/31 10:07:53;;;;;;;2.22;1.60;;;21.80;58.60;;;;;;4925076;29;20502;-71
2021/08/31 10:10:19;;;;;;;2.22;1.65;;;21.80;58.50;;;;;;4924475;29;20423;-68
2021/08/31 10:12:47;;;;;;;2.25;1.58;;;21.70;58.70;;;;;;4924622;29;20411;-67
2021/08/31 10:15:16;;;;;;;1.90;1.40;;;21.80;58.60;;;;;;4925194;29;20400;-68
2021/08/31 10:17:44;;;;;;;2.13;1.63;;;21.80;58.50;;;;;;4924789;29;20423;-68
2021/08/31 10:20:13;;;;;;;2.33;1.60;;;21.80;58.70;;;;;;4924945;29;20451;-68
2021/08/31 10:22:42;;;;;;;1.92;1.40;;;21.80;58.70;;;;;;4924463;29;20404;-68
2021/08/31 10:25:09;;;;;;;1.90;1.50;;;21.80;58.50;;;;;;4924976;29;20427;-68
2021/08/31 10:27:36;;;;;;;1.83;1.30;;;21.80;58.50;;;;;;4923675;29;20924;-68
2021/08/31 10:30:20;;;;;;;2.00;1.40;;;21.80;58.50;;;;;;4924670;29;20410;-67
2021/08/31 10:32:50;;;;;;;2.00;1.60;;;21.80;58.60;;;;;;4924515;29;20410;-69
2021/08/31 10:35:31;;;;;;;1.80;1.30;;;21.80;58.30;;;;;;4924952;29;20911;-66
2021/08/31 10:37:59;;;;;;;2.00;1.30;;;21.80;58.50;;;;;;4924544;29;20426;-67
2021/08/31 10:40:41;;;;;;;1.90;1.30;;;21.80;58.30;;;;;;4928469;29;20402;-68
2021/08/31 10:43:09;;;;;;;1.67;1.30;;;21.80;58.50;;;;;;4926691;29;20447;-68
2021/08/31 10:45:39;;;;;;;1.80;1.35;;;21.80;58.30;;;;;;4928220;28;20431;-68
2021/08/31 10:48:23;;;;;;;2.08;1.50;;;21.80;58.60;;;;;;4928113;29;20502;-68
2021/08/31 10:51:00;;;;;;;1.77;1.20;;;21.80;58.50;;;;;;4927765;29;20410;-68
2021/08/31 10:53:44;;;;;;;2.10;1.50;;;21.80;58.30;;;;;;4928102;29;20395;-69
2021/08/31 10:56:22;;;;;;;1.90;1.20;;;21.80;58.40;;;;;;4928326;29;20403;-68
2021/08/31 10:59:03;;;;;;;2.00;1.30;;;21.90;58.40;;;;;;4929077;29;20399;-69
2021/08/31 11:01:37;;;;;;;1.42;1.02;;;21.80;58.30;;;;;;4928337;29;20419;-67
2021/08/31 11:04:22;;;;;;;1.67;1.30;;;21.80;58.50;;;;;;4927933;29;20412;-66
2021/08/31 11:07:04;;;;;;;1.55;1.02;;;21.80;58.30;;;;;;4927616;29;20421;-68
2021/08/31 11:09:32;;;;;;;1.70;1.30;;;21.80;58.40;;;;;;4927596;29;20403;-68
2021/08/31 11:12:08;;;;;;;1.67;1.15;;;21.80;58.30;;;;;;4927527;29;20421;-68
2021/08/31 11:14:50;;;;;;;1.73;1.20;;;21.80;58.30;;;;;;4921916;29;20904;-68
2021/08/31 11:17:39;;;;;;;1.38;1.23;;;21.80;58.50;;;;;;4941531;29;20784;-67
2021/08/31 11:20:14;;;;;;;1.60;1.20;;;21.80;58.50;;;;;;4926381;29;20457;-67
2021/08/31 11:22:40;;;;;;;1.40;1.10;;;21.80;58.40;;;;;;4927395;29;20756;-68
2021/08/31 11:25:06;;;;;;;1.17;0.90;;;21.80;58.40;;;;;;4941852;29;20403;-68
2021/08/31 11:27:52;;;;;;;1.38;1.05;;;21.80;58.50;;;;;;4927090;29;20431;-68
2021/08/31 11:30:19;;;;;;;1.40;1.00;;;21.80;58.40;;;;;;4924883;29;20420;-69
2021/08/31 11:32:45;;;;;;;1.45;1.10;;;21.80;58.40;;;;;;4926129;29;20454;-69
2021/08/31 11:35:10;;;;;;;1.55;1.10;;;21.80;58.50;;;;;;4941204;28;20443;-67
2021/08/31 11:37:52;;;;;;;1.40;1.00;;;21.80;58.40;;;;;;4927320;29;20433;-66
2021/08/31 11:40:25;;;;;;;2.00;1.08;;;21.80;58.40;;;;;;4925486;29;20927;-69
2021/08/31 11:42:56;;;;;;;1.40;1.08;;;21.80;58.50;;;;;;4926633;29;20412;-67
2021/08/31 11:45:36;;;;;;;1.45;1.10;;;21.80;58.70;;;;;;4925968;29;20407;-70
2021/08/31 11:48:03;;;;;;;1.60;1.10;;;21.80;58.60;;;;;;4926724;29;20427;-69
2021/08/31 11:50:28;;;;;;;1.42;1.10;;;21.80;59.30;;;;;;4926317;29;20388;-68
2021/08/31 11:52:54;;;;;;;1.47;1.10;;;21.80;58.70;;;;;;4925348;29;20912;-68
2021/08/31 11:55:27;;;;;;;1.70;1.13;;;21.80;58.60;;;;;;4925716;29;20422;-67
2021/08/31 11:58:13;;;;;;;1.25;0.93;;;21.80;58.90;;;;;;4926460;29;20467;-68
2021/08/31 12:00:40;;;;;;;1.20;0.90;;;21.80;58.80;;;;;;4924635;29;20400;-68
2021/08/31 12:03:18;;;;;;;1.30;1.00;;;21.80;58.70;;;;;;4924783;29;20415;-67
2021/08/31 12:05:45;;;;;;;1.50;1.07;;;21.80;58.80;;;;;;4926652;29;21033;-67
2021/08/31 12:08:11;;;;;;;1.40;1.00;;;21.80;58.70;;;;;;4913799;29;20487;-69
2021/08/31 12:10:37;;;;;;;1.20;1.00;;;21.80;58.80;;;;;;4925270;29;20406;-67
2021/08/31 12:13:03;;;;;;;1.40;1.00;;;21.80;58.70;;;;;;4940843;28;20439;-67
2021/08/31 12:15:29;;;;;;;1.20;0.90;;;21.80;58.80;;;;;;4926343;28;20476;-66
2021/08/31 12:18:05;;;;;;;1.80;1.10;;;21.80;58.70;;;;;;4927019;29;20436;-68
2021/08/31 12:20:33;;;;;;;1.40;1.10;;;21.80;58.70;;;;;;4925065;29;20793;-68
2021/08/31 12:23:02;;;;;;;1.30;1.02;;;21.80;58.60;;;;;;4926021;29;20399;-68
2021/08/31 12:25:50;;;;;;;1.30;0.93;;;21.80;58.70;;;;;;4926450;29;20448;-69
2021/08/31 12:28:18;;;;;;;1.30;1.00;;;21.80;58.70;;;;;;4924661;29;20428;-68
2021/08/31 12:30:46;;;;;;;1.40;1.10;;;21.80;58.60;;;;;;4926194;29;20495;-66
2021/08/31 12:33:21;;;;;;;1.48;1.00;;;21.80;58.60;;;;;;4926396;29;20455;-67
2021/08/31 12:35:47;;;;;;;1.58;1.10;;;21.80;58.60;;;;;;4940700;28;20399;-69
2021/08/31 12:38:26;;;;;;;1.52;1.20;;;21.80;58.70;;;;;;4926118;29;20899;-67
2021/08/31 12:41:08;;;;;;;1.50;1.10;;;21.80;59.00;;;;;;4924803;29;20432;-67
2021/08/31 12:43:57;;;;;;;1.90;1.10;;;21.80;58.70;;;;;;4925857;29;20395;-68
2021/08/31 12:46:32;;;;;;;1.57;1.07;;;21.80;58.80;;;;;;4926212;29;20478;-67
2021/08/31 12:49:08;;;;;;;1.48;1.10;;;21.80;58.70;;;;;;4925880;29;20414;-69
2021/08/31 12:51:36;;;;;;;1.20;0.90;;;21.80;58.70;;;;;;4925962;29;20395;-68